Terminal Aerodrome Forecast
Issued by NWS

Home | Current Version | Previous Version | Text Only | Print | Product List | Glossary On
Versions: 1 2 3 4 5 6 7 8 9 10 11 12 13 14 15 16 17 18 19 20 21 22 23 24
000
FTUS44 KBMX 231740
TAFEET
TAF
KEET 231740Z 2318/2418 16008KT P6SM BKN025
     FM232100 16007KT P6SM BKN035
     FM240100 15002KT P6SM SCT030
     FM241000 15002KT 4SM BR BKN008
     FM241600 17009KT P6SM SCT030=

USA.gov is the U.S. government's official web portal to all federal, state and local government web resources and services.